sensor_id;sensor_type;location;lat;lon;timestamp;pressure;altitude;pressure_sealevel;temperature;humidity
70521;BME280;58442;52.716;23.560;2023-02-01T00:00:08;100016.82;;;1.80;74.25
70521;BME280;58442;52.716;23.560;2023-02-01T00:02:15;100008.77;;;1.80;74.34
70521;BME280;58442;52.716;23.560;2023-02-01T00:04:16;100001.22;;;1.82;74.36
70521;BME280;58442;52.716;23.560;2023-02-01T00:06:21;99990.98;;;1.84;74.41
70521;BME280;58442;52.716;23.560;2023-02-01T00:08:22;99991.48;;;1.86;74.38
70521;BME280;58442;52.716;23.560;2023-02-01T00:10:23;99991.64;;;1.89;74.34
70521;BME280;58442;52.716;23.560;2023-02-01T00:12:28;99979.52;;;1.92;74.37
70521;BME280;58442;52.716;23.560;2023-02-01T00:14:29;99973.09;;;1.93;74.15
70521;BME280;58442;52.716;23.560;2023-02-01T00:16:31;99975.77;;;1.93;74.41
70521;BME280;58442;52.716;23.560;2023-02-01T00:18:36;99973.87;;;1.94;74.49
70521;BME280;58442;52.716;23.560;2023-02-01T00:20:46;99968.52;;;1.94;74.64
70521;BME280;58442;52.716;23.560;2023-02-01T00:22:48;99957.80;;;1.94;74.73
70521;BME280;58442;52.716;23.560;2023-02-01T00:24:49;99952.44;;;1.94;74.78
70521;BME280;58442;52.716;23.560;2023-02-01T00:26:50;99953.22;;;1.94;74.87
70521;BME280;58442;52.716;23.560;2023-02-01T00:29:02;99946.45;;;1.97;74.92
70521;BME280;58442;52.716;23.560;2023-02-01T00:31:05;99944.55;;;1.97;74.99
70521;BME280;58442;52.716;23.560;2023-02-01T00:33:06;99938.09;;;1.98;75.06
70521;BME280;58442;52.716;23.560;2023-02-01T00:35:08;99934.02;;;2.01;75.12
70521;BME280;58442;52.716;23.560;2023-02-01T00:37:13;99937.48;;;2.01;75.13
70521;BME280;58442;52.716;23.560;2023-02-01T00:39:15;99930.55;;;2.00;75.27
70521;BME280;58442;52.716;23.560;2023-02-01T00:41:18;99922.51;;;2.00;75.34
70521;BME280;58442;52.716;23.560;2023-02-01T00:43:21;99918.26;;;1.99;75.41
70521;BME280;58442;52.716;23.560;2023-02-01T00:45:28;99919.34;;;1.98;75.56
70521;BME280;58442;52.716;23.560;2023-02-01T00:47:29;99932.91;;;2.02;75.55
70521;BME280;58442;52.716;23.560;2023-02-01T00:49:31;99917.94;;;2.01;75.61
70521;BME280;58442;52.716;23.560;2023-02-01T00:51:39;99918.73;;;2.01;75.66
70521;BME280;58442;52.716;23.560;2023-02-01T00:53:43;99908.48;;;2.03;75.71
70521;BME280;58442;52.716;23.560;2023-02-01T00:55:46;99896.66;;;2.04;75.75
70521;BME280;58442;52.716;23.560;2023-02-01T00:57:48;99901.41;;;2.07;75.74
70521;BME280;58442;52.716;23.560;2023-02-01T00:59:49;99898.73;;;2.07;75.75
70521;BME280;58442;52.716;23.560;2023-02-01T01:01:58;99883.75;;;2.06;75.83
70521;BME280;58442;52.716;23.560;2023-02-01T01:03:59;99889.12;;;2.06;75.92
70521;BME280;58442;52.716;23.560;2023-02-01T01:06:03;99881.08;;;2.06;75.99
70521;BME280;58442;52.716;23.560;2023-02-01T01:08:08;99879.48;;;2.05;76.02
70521;BME280;58442;52.716;23.560;2023-02-01T01:10:16;99880.26;;;2.06;76.13
70521;BME280;58442;52.716;23.560;2023-02-01T01:12:17;99867.68;;;2.06;76.22
70521;BME280;58442;52.716;23.560;2023-02-01T01:14:26;99860.58;;;2.10;76.22
70521;BME280;58442;52.716;23.560;2023-02-01T01:16:32;99861.54;;;2.14;76.12
70521;BME280;58442;52.716;23.560;2023-02-01T01:18:34;99858.55;;;2.16;76.10
70521;BME280;58442;52.716;23.560;2023-02-01T01:20:37;99858.22;;;2.17;76.11
70521;BME280;58442;52.716;23.560;2023-02-01T01:22:40;99852.08;;;2.17;76.11
70521;BME280;58442;52.716;23.560;2023-02-01T01:24:41;99853.19;;;2.16;76.20
70521;BME280;58442;52.716;23.560;2023-02-01T01:26:44;99847.36;;;2.14;76.31
70521;BME280;58442;52.716;23.560;2023-02-01T01:28:46;99858.86;;;2.14;76.44
70521;BME280;58442;52.716;23.560;2023-02-01T01:30:48;99851.30;;;2.16;76.46
70521;BME280;58442;52.716;23.560;2023-02-01T01:32:51;99838.99;;;2.15;76.43
70521;BME280;58442;52.716;23.560;2023-02-01T01:34:59;99837.90;;;2.16;76.50
70521;BME280;58442;52.716;23.560;2023-02-01T01:37:03;99826.85;;;2.18;76.56
70521;BME280;58442;52.716;23.560;2023-02-01T01:39:09;99821.16;;;2.19;76.56
70521;BME280;58442;52.716;23.560;2023-02-01T01:41:17;99821.16;;;2.19;76.55
70521;BME280;58442;52.716;23.560;2023-02-01T01:43:20;99821.66;;;2.22;76.54
70521;BME280;58442;52.716;23.560;2023-02-01T01:45:36;99826.24;;;2.21;76.58
70521;BME280;58442;52.716;23.560;2023-02-01T01:47:41;99820.09;;;2.21;76.64
70521;BME280;58442;52.716;23.560;2023-02-01T01:49:47;99809.37;;;2.21;76.72
70521;BME280;58442;52.716;23.560;2023-02-01T01:51:52;99820.09;;;2.21;76.75
70521;BME280;58442;52.716;23.560;2023-02-01T01:54:01;99812.84;;;2.21;76.80
70521;BME280;58442;52.716;23.560;2023-02-01T01:56:12;99816.45;;;2.25;76.78
70521;BME280;58442;52.716;23.560;2023-02-01T01:58:24;99814.27;;;2.27;76.75
70521;BME280;58442;52.716;23.560;2023-02-01T02:00:27;99809.37;;;2.29;76.76
70521;BME280;58442;52.716;23.560;2023-02-01T02:02:31;99815.20;;;2.31;76.73
70521;BME280;58442;52.716;23.560;2023-02-01T02:04:34;99802.25;;;2.33;76.63
70521;BME280;58442;52.716;23.560;2023-02-01T02:06:44;99801.96;;;2.35;76.63
70521;BME280;58442;52.716;23.560;2023-02-01T02:08:51;99808.43;;;2.34;76.64
70521;BME280;58442;52.716;23.560;2023-02-01T02:10:53;99810.95;;;2.30;76.76
70521;BME280;58442;52.716;23.560;2023-02-01T02:13:01;99805.26;;;2.32;76.78
70521;BME280;58442;52.716;23.560;2023-02-01T02:15:03;99806.04;;;2.32;76.82
70521;BME280;58442;52.716;23.560;2023-02-01T02:37:56;99817.09;;;2.22;77.47
70521;BME280;58442;52.716;23.560;2023-02-01T02:42:33;99814.55;;;2.26;77.54
70521;BME280;58442;52.716;23.560;2023-02-01T02:51:56;99817.23;;;2.26;77.75
70521;BME280;58442;52.716;23.560;2023-02-01T02:54:23;99824.20;;;2.27;77.76
70521;BME280;58442;52.716;23.560;2023-02-01T02:56:38;99826.88;;;2.27;77.79
70521;BME280;58442;52.716;23.560;2023-02-01T02:58:54;99824.67;;;2.29;77.82
70521;BME280;58442;52.716;23.560;2023-02-01T03:01:15;99823.09;;;2.28;77.89
70521;BME280;58442;52.716;23.560;2023-02-01T03:03:39;99823.38;;;2.26;77.99
70521;BME280;58442;52.716;23.560;2023-02-01T03:05:58;99813.77;;;2.25;78.06
70521;BME280;58442;52.716;23.560;2023-02-01T03:08:09;99819.63;;;2.27;78.13
70521;BME280;58442;52.716;23.560;2023-02-01T03:12:44;99825.77;;;2.28;78.16
70521;BME280;58442;52.716;23.560;2023-02-01T03:15:06;99820.41;;;2.28;78.14
70521;BME280;58442;52.716;23.560;2023-02-01T03:17:14;99817.41;;;2.29;78.17
70521;BME280;58442;52.716;23.560;2023-02-01T03:19:22;99816.30;;;2.30;78.19
70521;BME280;58442;52.716;23.560;2023-02-01T03:23:43;99829.38;;;2.32;78.33
70521;BME280;58442;52.716;23.560;2023-02-01T03:25:51;99831.28;;;2.31;78.40
70521;BME280;58442;52.716;23.560;2023-02-01T03:27:59;99825.92;;;2.31;78.44
70521;BME280;58442;52.716;23.560;2023-02-01T03:30:10;99830.17;;;2.32;78.53
70521;BME280;58442;52.716;23.560;2023-02-01T03:32:27;99831.46;;;2.35;78.54
70521;BME280;58442;52.716;23.560;2023-02-01T03:34:29;99836.81;;;2.35;78.57
70521;BME280;58442;52.716;23.560;2023-02-01T03:36:36;99834.61;;;2.37;78.55
70521;BME280;58442;52.716;23.560;2023-02-01T03:43:12;99845.50;;;2.40;78.55
70521;BME280;58442;52.716;23.560;2023-02-01T03:45:31;99835.56;;;2.41;78.54
70521;BME280;58442;52.716;23.560;2023-02-01T03:47:47;99837.13;;;2.42;78.56
70521;BME280;58442;52.716;23.560;2023-02-01T03:49:55;99837.93;;;2.42;78.61
70521;BME280;58442;52.716;23.560;2023-02-01T03:51:59;99851.33;;;2.42;78.63
70521;BME280;58442;52.716;23.560;2023-02-01T03:54:03;99843.61;;;2.41;78.65
70521;BME280;58442;52.716;23.560;2023-02-01T03:56:06;99836.03;;;2.43;78.67
70521;BME280;58442;52.716;23.560;2023-02-01T04:00:28;99847.23;;;2.45;78.70
70521;BME280;58442;52.716;23.560;2023-02-01T04:02:29;99846.12;;;2.46;78.72
70521;BME280;58442;52.716;23.560;2023-02-01T04:04:30;99846.12;;;2.46;78.72
70521;BME280;58442;52.716;23.560;2023-02-01T04:06:32;99850.38;;;2.47;78.75
70521;BME280;58442;52.716;23.560;2023-02-01T04:08:38;99846.61;;;2.48;78.73
70521;BME280;58442;52.716;23.560;2023-02-01T04:10:39;99855.44;;;2.49;78.72
70521;BME280;58442;52.716;23.560;2023-02-01T04:12:41;99848.65;;;2.51;78.68
70521;BME280;58442;52.716;23.560;2023-02-01T04:14:42;99842.18;;;2.52;78.66
70521;BME280;58442;52.716;23.560;2023-02-01T04:16:44;99849.90;;;2.54;78.65
70521;BME280;58442;52.716;23.560;2023-02-01T04:18:46;99848.33;;;2.53;78.61
70521;BME280;58442;52.716;23.560;2023-02-01T04:20:56;99858.27;;;2.52;78.67
70521;BME280;58442;52.716;23.560;2023-02-01T04:22:57;99857.66;;;2.55;78.66
70521;BME280;58442;52.716;23.560;2023-02-01T04:25:02;99860.02;;;2.57;78.61
70521;BME280;58442;52.716;23.560;2023-02-01T04:27:06;99853.87;;;2.56;78.58
70521;BME280;58442;52.716;23.560;2023-02-01T04:29:11;99856.55;;;2.56;78.59
70521;BME280;58442;52.716;23.560;2023-02-01T04:31:12;99845.82;;;2.56;78.61
70521;BME280;58442;52.716;23.560;2023-02-01T04:33:14;99853.87;;;2.56;78.62
70521;BME280;58442;52.716;23.560;2023-02-01T04:35:23;99860.02;;;2.57;78.61
70521;BME280;58442;52.716;23.560;2023-02-01T04:37:26;99854.65;;;2.57;78.62
70521;BME280;58442;52.716;23.560;2023-02-01T04:39:27;99857.33;;;2.57;78.64
70521;BME280;58442;52.716;23.560;2023-02-01T04:41:28;99855.44;;;2.57;78.65
70521;BME280;58442;52.716;23.560;2023-02-01T04:43:30;99858.91;;;2.58;78.64
70521;BME280;58442;52.716;23.560;2023-02-01T04:47:49;99864.74;;;2.60;78.67
70521;BME280;58442;52.716;23.560;2023-02-01T04:49:50;99873.57;;;2.60;78.65
70521;BME280;58442;52.716;23.560;2023-02-01T04:51:52;99866.02;;;2.62;78.63
70521;BME280;58442;52.716;23.560;2023-02-01T04:53:56;99867.91;;;2.62;78.62
70521;BME280;58442;52.716;23.560;2023-02-01T04:55:57;99871.38;;;2.62;78.64
70521;BME280;58442;52.716;23.560;2023-02-01T04:57:58;99871.38;;;2.62;78.66
70521;BME280;58442;52.716;23.560;2023-02-01T05:00:00;99874.86;;;2.63;78.63
70521;BME280;58442;52.716;23.560;2023-02-01T05:02:11;99864.91;;;2.63;78.65
70521;BME280;58442;52.716;23.560;2023-02-01T05:04:12;99864.59;;;2.65;78.66
70521;BME280;58442;52.716;23.560;2023-02-01T05:06:14;99861.90;;;2.65;78.63
70521;BME280;58442;52.716;23.560;2023-02-01T05:08:15;99865.05;;;2.67;78.61
70521;BME280;58442;52.716;23.560;2023-02-01T05:10:26;99871.21;;;2.67;78.53
70521;BME280;58442;52.716;23.560;2023-02-01T05:12:27;99871.70;;;2.69;78.54
70521;BME280;58442;52.716;23.560;2023-02-01T05:14:40;99873.59;;;2.69;78.54
70521;BME280;58442;52.716;23.560;2023-02-01T05:16:41;99869.02;;;2.69;78.52
70521;BME280;58442;52.716;23.560;2023-02-01T05:18:45;99872.17;;;2.71;78.47
70521;BME280;58442;52.716;23.560;2023-02-01T05:20:49;99874.38;;;2.69;78.49
70521;BME280;58442;52.716;23.560;2023-02-01T05:22:50;99875.17;;;2.70;78.49
70521;BME280;58442;52.716;23.560;2023-02-01T05:24:52;99875.49;;;2.68;78.51
70521;BME280;58442;52.716;23.560;2023-02-01T05:26:59;99875.17;;;2.70;78.52
70521;BME280;58442;52.716;23.560;2023-02-01T05:29:01;99874.38;;;2.69;78.50
70521;BME280;58442;52.716;23.560;2023-02-01T05:33:18;99879.75;;;2.69;78.50
70521;BME280;58442;52.716;23.560;2023-02-01T05:35:20;99869.81;;;2.70;78.49
70521;BME280;58442;52.716;23.560;2023-02-01T05:37:24;99875.96;;;2.70;78.49
70521;BME280;58442;52.716;23.560;2023-02-01T05:39:28;99870.59;;;2.70;78.49
70521;BME280;58442;52.716;23.560;2023-02-01T05:41:29;99872.48;;;2.70;78.50
70521;BME280;58442;52.716;23.560;2023-02-01T05:43:42;99877.07;;;2.69;78.53
70521;BME280;58442;52.716;23.560;2023-02-01T05:45:43;99873.89;;;2.67;78.56
70521;BME280;58442;52.716;23.560;2023-02-01T05:47:44;99876.58;;;2.67;78.60
70521;BME280;58442;52.716;23.560;2023-02-01T05:49:46;99875.49;;;2.68;78.64
70521;BME280;58442;52.716;23.560;2023-02-01T05:51:49;99878.18;;;2.68;78.64
70521;BME280;58442;52.716;23.560;2023-02-01T05:53:50;99872.03;;;2.68;78.64
70521;BME280;58442;52.716;23.560;2023-02-01T05:55:54;99879.75;;;2.69;78.64
70521;BME280;58442;52.716;23.560;2023-02-01T05:58:03;99886.23;;;2.68;78.61
70521;BME280;58442;52.716;23.560;2023-02-01T06:00:05;99883.55;;;2.68;78.62
70521;BME280;58442;52.716;23.560;2023-02-01T06:02:08;99886.23;;;2.68;78.60
70521;BME280;58442;52.716;23.560;2023-02-01T06:04:16;99888.12;;;2.68;78.61
70521;BME280;58442;52.716;23.560;2023-02-01T06:06:18;99875.49;;;2.68;78.59
70521;BME280;58442;52.716;23.560;2023-02-01T06:08:20;99880.36;;;2.66;78.58
70521;BME280;58442;52.716;23.560;2023-02-01T06:10:22;99885.26;;;2.64;78.63
70521;BME280;58442;52.716;23.560;2023-02-01T06:12:26;99881.80;;;2.64;78.68
70521;BME280;58442;52.716;23.560;2023-02-01T06:14:29;99882.12;;;2.62;78.70
70521;BME280;58442;52.716;23.560;2023-02-01T06:16:34;99880.83;;;2.60;78.73
70521;BME280;58442;52.716;23.560;2023-02-01T06:18:38;99883.37;;;2.56;78.74
70521;BME280;58442;52.716;23.560;2023-02-01T06:20:39;99886.66;;;2.53;78.78
70521;BME280;58442;52.716;23.560;2023-02-01T06:22:41;99886.52;;;2.50;78.81
70521;BME280;58442;52.716;23.560;2023-02-01T06:24:49;99880.98;;;2.46;78.83
70521;BME280;58442;52.716;23.560;2023-02-01T06:26:50;99883.52;;;2.42;78.88
70521;BME280;58442;52.716;23.560;2023-02-01T06:28:52;99881.15;;;2.41;78.95
70521;BME280;58442;52.716;23.560;2023-02-01T06:30:54;99881.15;;;2.41;78.88
70521;BME280;58442;52.716;23.560;2023-02-01T06:33:04;99880.36;;;2.40;78.90
70521;BME280;58442;52.716;23.560;2023-02-01T06:35:08;99894.05;;;2.39;78.98
70521;BME280;58442;52.716;23.560;2023-02-01T06:37:21;99900.21;;;2.39;79.01
70521;BME280;58442;52.716;23.560;2023-02-01T06:39:22;99890.59;;;2.38;79.04
70521;BME280;58442;52.716;23.560;2023-02-01T06:41:29;99890.27;;;2.40;79.10
70521;BME280;58442;52.716;23.560;2023-02-01T06:43:33;99894.55;;;2.41;79.13
70521;BME280;58442;52.716;23.560;2023-02-01T06:45:35;99892.95;;;2.40;79.11
70521;BME280;58442;52.716;23.560;2023-02-01T06:47:36;99890.27;;;2.40;79.16
70521;BME280;58442;52.716;23.560;2023-02-01T06:49:39;99892.95;;;2.40;79.18
70521;BME280;58442;52.716;23.560;2023-02-01T06:51:41;99898.31;;;2.40;79.17
70521;BME280;58442;52.716;23.560;2023-02-01T06:53:46;99889.20;;;2.41;79.10
70521;BME280;58442;52.716;23.560;2023-02-01T06:56:00;99891.88;;;2.41;79.08
70521;BME280;58442;52.716;23.560;2023-02-01T06:58:07;99893.77;;;2.40;79.07
70521;BME280;58442;52.716;23.560;2023-02-01T07:00:19;99892.95;;;2.40;79.11
70521;BME280;58442;52.716;23.560;2023-02-01T07:02:20;99891.09;;;2.40;79.21
70521;BME280;58442;52.716;23.560;2023-02-01T07:04:22;99893.13;;;2.43;79.21
70521;BME280;58442;52.716;23.560;2023-02-01T07:06:23;99900.39;;;2.43;79.17
70521;BME280;58442;52.716;23.560;2023-02-01T07:08:32;99898.49;;;2.43;79.20
70521;BME280;58442;52.716;23.560;2023-02-01T07:10:39;99899.28;;;2.44;79.25
70521;BME280;58442;52.716;23.560;2023-02-01T07:12:44;99884.77;;;2.45;79.21
70521;BME280;58442;52.716;23.560;2023-02-01T07:14:45;99895.16;;;2.46;79.22
70521;BME280;58442;52.716;23.560;2023-02-01T07:16:48;99893.59;;;2.45;79.28
70521;BME280;58442;52.716;23.560;2023-02-01T07:18:51;99888.41;;;2.49;79.28
70521;BME280;58442;52.716;23.560;2023-02-01T07:20:52;99895.34;;;2.50;79.31
70521;BME280;58442;52.716;23.560;2023-02-01T07:22:55;99898.99;;;2.54;79.34
70521;BME280;58442;52.716;23.560;2023-02-01T07:25:04;99901.04;;;2.57;79.34
70521;BME280;58442;52.716;23.560;2023-02-01T07:27:06;99897.71;;;2.60;79.36
70521;BME280;58442;52.716;23.560;2023-02-01T07:29:08;99900.25;;;2.65;79.33
70521;BME280;58442;52.716;23.560;2023-02-01T07:31:12;99904.68;;;2.70;79.27
70521;BME280;58442;52.716;23.560;2023-02-01T07:33:23;99903.74;;;2.74;79.24
70521;BME280;58442;52.716;23.560;2023-02-01T07:35:26;99901.86;;;2.75;79.27
70521;BME280;58442;52.716;23.560;2023-02-01T07:37:27;99904.68;;;2.79;79.26
70521;BME280;58442;52.716;23.560;2023-02-01T07:39:28;99907.20;;;2.84;79.21
70521;BME280;58442;52.716;23.560;2023-02-01T07:41:33;99905.77;;;2.86;79.19
70521;BME280;58442;52.716;23.560;2023-02-01T07:43:35;99900.91;;;2.88;79.18
70521;BME280;58442;52.716;23.560;2023-02-01T07:45:37;99913.83;;;2.95;79.13
70521;BME280;58442;52.716;23.560;2023-02-01T07:47:38;99905.62;;;3.00;79.00
70521;BME280;58442;52.716;23.560;2023-02-01T07:49:48;99907.68;;;3.03;78.96
70521;BME280;58442;52.716;23.560;2023-02-01T07:51:52;99905.00;;;3.03;79.00
70521;BME280;58442;52.716;23.560;2023-02-01T07:53:59;99909.73;;;3.06;78.92
70521;BME280;58442;52.716;23.560;2023-02-01T07:56:01;99902.13;;;3.08;78.82
70521;BME280;58442;52.716;23.560;2023-02-01T07:58:03;99898.37;;;3.09;78.78
70521;BME280;58442;52.716;23.560;2023-02-01T08:00:10;99900.41;;;3.12;78.78
70521;BME280;58442;52.716;23.560;2023-02-01T08:02:24;99901.98;;;3.13;78.76
70521;BME280;58442;52.716;23.560;2023-02-01T08:04:33;99889.02;;;3.15;78.71
70521;BME280;58442;52.716;23.560;2023-02-01T08:06:34;99891.70;;;3.15;78.67
70521;BME280;58442;52.716;23.560;2023-02-01T08:08:38;99893.92;;;3.13;78.85
70521;BME280;58442;52.716;23.560;2023-02-01T08:10:42;99891.70;;;3.15;78.62
70521;BME280;58442;52.716;23.560;2023-02-01T08:12:46;99895.98;;;3.16;78.62
70521;BME280;58442;52.716;23.560;2023-02-01T08:14:49;99894.88;;;3.17;78.61
70521;BME280;58442;52.716;23.560;2023-02-01T08:16:50;99904.18;;;3.20;78.59
70521;BME280;58442;52.716;23.560;2023-02-01T08:18:52;99899.59;;;3.20;78.56
70521;BME280;58442;52.716;23.560;2023-02-01T08:20:55;99906.54;;;3.21;78.57
70521;BME280;58442;52.716;23.560;2023-02-01T08:23:01;99901.66;;;3.23;78.58
70521;BME280;58442;52.716;23.560;2023-02-01T08:25:06;99900.23;;;3.26;78.54
70521;BME280;58442;52.716;23.560;2023-02-01T08:27:08;99904.16;;;3.28;78.42
70521;BME280;58442;52.716;23.560;2023-02-01T08:29:09;99897.71;;;3.29;78.35
70521;BME280;58442;52.716;23.560;2023-02-01T08:31:19;99891.70;;;3.33;78.36
70521;BME280;58442;52.716;23.560;2023-02-01T08:33:22;99885.20;;;3.34;78.32
70521;BME280;58442;52.716;23.560;2023-02-01T08:35:25;99891.81;;;3.36;78.25
70521;BME280;58442;52.716;23.560;2023-02-01T08:37:27;99888.05;;;3.37;78.19
70521;BME280;58442;52.716;23.560;2023-02-01T08:39:31;99891.98;;;3.40;78.21
70521;BME280;58442;52.716;23.560;2023-02-01T08:41:37;99888.98;;;3.41;78.21
70521;BME280;58442;52.716;23.560;2023-02-01T08:43:46;99886.45;;;3.45;78.17
70521;BME280;58442;52.716;23.560;2023-02-01T08:45:49;99879.30;;;3.49;78.11
70521;BME280;58442;52.716;23.560;2023-02-01T08:47:52;99882.62;;;3.54;78.07
70521;BME280;58442;52.716;23.560;2023-02-01T08:49:53;99885.92;;;3.60;78.05
70521;BME280;58442;52.716;23.560;2023-02-01T08:51:55;99884.77;;;3.70;77.95
70521;BME280;58442;52.716;23.560;2023-02-01T08:53:56;99890.44;;;3.77;77.80
70521;BME280;58442;52.716;23.560;2023-02-01T08:56:02;99879.34;;;3.87;77.65
70521;BME280;58442;52.716;23.560;2023-02-01T08:58:03;99880.40;;;3.95;77.55
70521;BME280;58442;52.716;23.560;2023-02-01T09:00:15;99879.12;;;4.01;77.46
70521;BME280;58442;52.716;23.560;2023-02-01T09:02:17;99885.89;;;4.07;77.29
70521;BME280;58442;52.716;23.560;2023-02-01T09:04:24;99874.96;;;4.12;77.23
70521;BME280;58442;52.716;23.560;2023-02-01T09:06:27;99875.54;;;4.18;77.00
70521;BME280;58442;52.716;23.560;2023-02-01T09:08:31;99870.30;;;4.21;76.85
70521;BME280;58442;52.716;23.560;2023-02-01T09:10:34;99879.00;;;4.18;76.89
70521;BME280;58442;52.716;23.560;2023-02-01T09:12:39;99879.00;;;4.18;76.88
70521;BME280;58442;52.716;23.560;2023-02-01T09:14:40;99873.51;;;4.15;76.84
70521;BME280;58442;52.716;23.560;2023-02-01T09:16:41;99881.41;;;4.11;76.95
70521;BME280;58442;52.716;23.560;2023-02-01T09:18:43;99882.09;;;4.08;76.94
70521;BME280;58442;52.716;23.560;2023-02-01T09:20:47;99873.56;;;4.06;76.93
70521;BME280;58442;52.716;23.560;2023-02-01T09:22:50;99875.30;;;4.02;76.94
70521;BME280;58442;52.716;23.560;2023-02-01T09:24:53;99875.18;;;3.98;76.98
70521;BME280;58442;52.716;23.560;2023-02-01T09:26:55;99878.18;;;3.97;76.95
70521;BME280;58442;52.716;23.560;2023-02-01T09:29:03;99881.98;;;3.96;76.94
70521;BME280;58442;52.716;23.560;2023-02-01T09:31:04;99876.48;;;3.92;76.97
70521;BME280;58442;52.716;23.560;2023-02-01T09:33:06;99881.70;;;3.89;77.06
70521;BME280;58442;52.716;23.560;2023-02-01T09:35:07;99883.59;;;3.88;77.05
70521;BME280;58442;52.716;23.560;2023-02-01T09:37:18;99880.12;;;3.88;77.04
70521;BME280;58442;52.716;23.560;2023-02-01T09:39:19;99882.03;;;3.87;77.01
70521;BME280;58442;52.716;23.560;2023-02-01T09:41:37;99873.96;;;3.87;77.00
70521;BME280;58442;52.716;23.560;2023-02-01T09:43:42;99880.12;;;3.88;77.04
70521;BME280;58442;52.716;23.560;2023-02-01T09:48:19;99869.66;;;3.95;76.94
70521;BME280;58442;52.716;23.560;2023-02-01T09:50:21;99866.63;;;3.96;76.91
70521;BME280;58442;52.716;23.560;2023-02-01T09:55:03;99862.20;;;4.00;76.76
70521;BME280;58442;52.716;23.560;2023-02-01T09:57:17;99862.32;;;4.04;76.70
70521;BME280;58442;52.716;23.560;2023-02-01T10:01:32;99870.03;;;4.14;76.50
70521;BME280;58442;52.716;23.560;2023-02-01T10:03:36;99865.26;;;4.20;76.46
70521;BME280;58442;52.716;23.560;2023-02-01T10:08:18;99872.34;;;4.24;76.35
70521;BME280;58442;52.716;23.560;2023-02-01T10:24:46;99863.27;;;3.70;76.66
70521;BME280;58442;52.716;23.560;2023-02-01T10:29:24;99857.98;;;3.52;76.90
70521;BME280;58442;52.716;23.560;2023-02-01T10:31:34;99851.66;;;3.48;77.04
70521;BME280;58442;52.716;23.560;2023-02-01T10:33:46;99848.52;;;3.46;77.16
70521;BME280;58442;52.716;23.560;2023-02-01T10:35:54;99847.73;;;3.46;77.22
70521;BME280;58442;52.716;23.560;2023-02-01T10:38:07;99840.78;;;3.45;77.32
70521;BME280;58442;52.716;23.560;2023-02-01T10:40:19;99843.14;;;3.46;77.40
70521;BME280;58442;52.716;23.560;2023-02-01T10:42:27;99840.59;;;3.50;77.38
70521;BME280;58442;52.716;23.560;2023-02-01T10:44:30;99851.82;;;3.52;77.43
70521;BME280;58442;52.716;23.560;2023-02-01T10:46:34;99854.96;;;3.54;77.49
70521;BME280;58442;52.716;23.560;2023-02-01T10:48:37;99852.61;;;3.52;77.46
70521;BME280;58442;52.716;23.560;2023-02-01T10:53:11;99859.10;;;3.43;77.47
70521;BME280;58442;52.716;23.560;2023-02-01T10:55:27;99858.02;;;3.35;77.59
70521;BME280;58442;52.716;23.560;2023-02-01T10:57:30;99860.11;;;3.29;77.62
70521;BME280;58442;52.716;23.560;2023-02-01T10:59:32;99854.90;;;3.24;77.63
70521;BME280;58442;52.716;23.560;2023-02-01T11:01:41;99858.21;;;3.21;77.71
70521;BME280;58442;52.716;23.560;2023-02-01T11:08:20;99851.13;;;3.17;77.97
70521;BME280;58442;52.716;23.560;2023-02-01T11:12:37;99851.27;;;3.20;78.10
70521;BME280;58442;52.716;23.560;2023-02-01T11:14:40;99859.00;;;3.22;78.16
70521;BME280;58442;52.716;23.560;2023-02-01T11:16:47;99856.47;;;3.25;78.18
70521;BME280;58442;52.716;23.560;2023-02-01T11:19:04;99854.09;;;3.33;78.21
70521;BME280;58442;52.716;23.560;2023-02-01T11:21:11;99852.48;;;3.40;78.21
70521;BME280;58442;52.716;23.560;2023-02-01T11:23:17;99856.57;;;3.46;78.18
70521;BME280;58442;52.716;23.560;2023-02-01T11:25:30;99848.15;;;3.56;78.12
70521;BME280;58442;52.716;23.560;2023-02-01T11:27:33;99851.94;;;3.64;78.04
70521;BME280;58442;52.716;23.560;2023-02-01T11:29:46;99843.84;;;3.73;77.97
70521;BME280;58442;52.716;23.560;2023-02-01T11:31:49;99844.45;;;3.78;77.89
70521;BME280;58442;52.716;23.560;2023-02-01T11:34:04;99848.70;;;3.79;77.85
70521;BME280;58442;52.716;23.560;2023-02-01T11:36:29;99849.82;;;3.78;77.88
70521;BME280;58442;52.716;23.560;2023-02-01T11:38:28;99847.30;;;3.73;77.92
70521;BME280;58442;52.716;23.560;2023-02-01T11:40:36;99842.56;;;3.70;78.00
70521;BME280;58442;52.716;23.560;2023-02-01T11:47:24;99838.02;;;3.62;78.02
70521;BME280;58442;52.716;23.560;2023-02-01T11:49:29;99844.38;;;3.58;78.11
70521;BME280;58442;52.716;23.560;2023-02-01T11:51:42;99849.14;;;3.52;78.19
70521;BME280;58442;52.716;23.560;2023-02-01T12:14:41;99829.17;;;3.62;78.59
70521;BME280;58442;52.716;23.560;2023-02-01T12:19:22;99838.51;;;3.64;78.66
70521;BME280;58442;52.716;23.560;2023-02-01T12:24:07;99840.70;;;3.62;78.79
70521;BME280;58442;52.716;23.560;2023-02-01T12:28:46;99850.66;;;3.62;78.81
70521;BME280;58442;52.716;23.560;2023-02-01T12:33:29;99849.25;;;3.64;78.85
70521;BME280;58442;52.716;23.560;2023-02-01T12:40:35;99846.52;;;3.73;78.81
70521;BME280;58442;52.716;23.560;2023-02-01T12:42:57;99847.76;;;3.75;78.79
70521;BME280;58442;52.716;23.560;2023-02-01T12:45:14;99850.45;;;3.75;78.80
70521;BME280;58442;52.716;23.560;2023-02-01T12:47:24;99844.30;;;3.75;78.87
70521;BME280;58442;52.716;23.560;2023-02-01T12:51:46;99840.30;;;3.81;78.84
70521;BME280;58442;52.716;23.560;2023-02-01T12:56:06;99843.28;;;3.88;78.71
70521;BME280;58442;52.716;23.560;2023-02-01T12:58:25;99851.95;;;3.94;78.68
70521;BME280;58442;52.716;23.560;2023-02-01T13:00:40;99849.73;;;3.96;78.64
70521;BME280;58442;52.716;23.560;2023-02-01T13:02:55;99847.82;;;3.96;78.65
70521;BME280;58442;52.716;23.560;2023-02-01T13:07:21;99854.48;;;3.99;78.71
70521;BME280;58442;52.716;23.560;2023-02-01T13:09:29;99858.73;;;4.00;78.73
70521;BME280;58442;52.716;23.560;2023-02-01T13:11:39;99854.48;;;3.99;78.75
70521;BME280;58442;52.716;23.560;2023-02-01T13:13:54;99862.05;;;3.97;78.74